Time;durP1;ratioP1;P1;durP2;ratioP2;P2;SDS_P1;SDS_P2;PMS_P1;PMS_P2;Temp;Humidity;BMP_temperature;BMP_pressure;BME280_temperature;BME280_humidity;BME280_pressure;Samples;Min_cycle;Max_cycle;Signal;HPM_P1;HPM_P2
2022/03/06 00:01:52;;;;;;;116.00;59.28;;;;;;;;;;4995832;28;20030;-47
2022/03/06 00:04:18;;;;;;;160.30;81.60;;;;;;;;;;4995934;28;20022;-50
2022/03/06 00:06:44;;;;;;;122.20;62.33;;;;;;;;;;4995231;28;20042;-55
2022/03/06 00:09:10;;;;;;;118.97;60.03;;;;;;;;;;4995420;28;20030;-53
2022/03/06 00:11:37;;;;;;;111.68;56.58;;;;;;;;;;4995671;28;20030;-56
2022/03/06 00:14:03;;;;;;;113.93;55.45;;;;;;;;;;4995474;28;20026;-54
2022/03/06 00:16:29;;;;;;;112.38;55.40;;;;;;;;;;4995284;28;20027;-53
2022/03/06 00:18:56;;;;;;;99.55;52.72;;;;;;;;;;4995205;28;20084;-53
2022/03/06 00:21:22;;;;;;;111.35;56.08;;;;;;;;;;4994600;28;20023;-53
2022/03/06 00:23:48;;;;;;;113.32;57.92;;;;;;;;;;4995266;28;20494;-55
2022/03/06 00:26:14;;;;;;;109.45;55.75;;;;;;;;;;4995423;28;20479;-52
2022/03/06 00:28:40;;;;;;;124.43;62.35;;;;;;;;;;4994836;28;20029;-48
2022/03/06 00:31:07;;;;;;;116.72;59.05;;;;;;;;;;4995539;28;20453;-53
2022/03/06 00:33:34;;;;;;;120.22;61.40;;;;;;;;;;4994978;28;20034;-55
2022/03/06 00:36:00;;;;;;;123.43;61.78;;;;;;;;;;4995196;28;20030;-52
2022/03/06 00:38:27;;;;;;;136.00;65.70;;;;;;;;;;4995130;28;20023;-56
2022/03/06 00:40:53;;;;;;;135.57;66.45;;;;;;;;;;4994822;28;20113;-56
2022/03/06 00:43:19;;;;;;;129.35;64.30;;;;;;;;;;4996245;28;20379;-54
2022/03/06 00:45:45;;;;;;;127.70;63.45;;;;;;;;;;4994909;28;20030;-57
2022/03/06 00:48:11;;;;;;;130.40;63.05;;;;;;;;;;4994594;28;20029;-57
2022/03/06 00:50:38;;;;;;;136.52;66.07;;;;;;;;;;4994953;28;20018;-55
2022/03/06 00:53:05;;;;;;;129.95;64.40;;;;;;;;;;4994988;28;20026;-53
2022/03/06 00:55:32;;;;;;;126.50;60.80;;;;;;;;;;4994540;28;20110;-55
2022/03/06 00:58:05;;;;;;;103.60;51.58;;;;;;;;;;4994634;28;20026;-51
2022/03/06 01:00:34;;;;;;;102.22;51.10;;;;;;;;;;4994522;28;20022;-49
2022/03/06 01:03:00;;;;;;;105.40;52.83;;;;;;;;;;4994448;28;20030;-54
2022/03/06 01:05:27;;;;;;;99.63;51.00;;;;;;;;;;4994632;28;20026;-54
2022/03/06 01:07:53;;;;;;;99.68;51.55;;;;;;;;;;4994565;28;20027;-54
2022/03/06 01:10:19;;;;;;;95.72;50.33;;;;;;;;;;4994015;28;20037;-56
2022/03/06 01:12:45;;;;;;;94.15;50.28;;;;;;;;;;4994386;28;20065;-54
2022/03/06 01:15:12;;;;;;;92.70;48.00;;;;;;;;;;4994340;28;20022;-55
2022/03/06 01:17:38;;;;;;;93.63;46.80;;;;;;;;;;4993880;28;20033;-55
2022/03/06 01:20:05;;;;;;;93.35;48.10;;;;;;;;;;4994059;28;20064;-54
2022/03/06 01:22:31;;;;;;;91.75;47.05;;;;;;;;;;4994065;28;20038;-54
2022/03/06 01:24:57;;;;;;;84.22;46.30;;;;;;;;;;4994292;28;20029;-56
2022/03/06 01:27:24;;;;;;;84.43;43.00;;;;;;;;;;4994155;28;20072;-53
2022/03/06 01:29:50;;;;;;;81.47;43.20;;;;;;;;;;4994107;28;20169;-54
2022/03/06 01:32:16;;;;;;;81.35;44.25;;;;;;;;;;4994044;28;20485;-55
2022/03/06 01:34:42;;;;;;;97.15;52.00;;;;;;;;;;4994309;28;20109;-53
2022/03/06 01:37:09;;;;;;;88.20;45.97;;;;;;;;;;4993743;28;20027;-53
2022/03/06 01:39:35;;;;;;;100.75;52.65;;;;;;;;;;4994238;28;20030;-55
2022/03/06 01:42:01;;;;;;;120.93;60.03;;;;;;;;;;4993948;28;20126;-49
2022/03/06 01:44:27;;;;;;;107.47;55.53;;;;;;;;;;4994401;28;20022;-56
2022/03/06 01:46:53;;;;;;;107.50;54.95;;;;;;;;;;4994005;28;20054;-53
2022/03/06 01:49:20;;;;;;;114.95;56.95;;;;;;;;;;4993848;28;20018;-50
2022/03/06 01:51:46;;;;;;;125.95;62.80;;;;;;;;;;4993827;28;20062;-53
2022/03/06 01:54:13;;;;;;;112.75;56.25;;;;;;;;;;4994187;28;20483;-55
2022/03/06 01:56:40;;;;;;;98.65;48.88;;;;;;;;;;4993915;28;20065;-54
2022/03/06 01:59:06;;;;;;;80.13;41.50;;;;;;;;;;4993369;28;20026;-51
2022/03/06 02:01:32;;;;;;;75.05;40.22;;;;;;;;;;4994196;28;20033;-55
2022/03/06 02:03:59;;;;;;;59.22;32.85;;;;;;;;;;4993620;28;20069;-54
2022/03/06 02:06:26;;;;;;;66.32;37.13;;;;;;;;;;4993666;28;20040;-55
2022/03/06 02:08:52;;;;;;;58.55;35.08;;;;;;;;;;4994267;28;20415;-55
2022/03/06 02:11:18;;;;;;;66.47;36.50;;;;;;;;;;4997213;28;20023;-55
2022/03/06 02:13:45;;;;;;;71.20;38.30;;;;;;;;;;4997595;28;20121;-56
2022/03/06 02:16:11;;;;;;;76.80;42.60;;;;;;;;;;4998160;28;20023;-52
2022/03/06 02:18:38;;;;;;;88.57;46.20;;;;;;;;;;4997082;28;20030;-54
2022/03/06 02:21:07;;;;;;;92.53;49.15;;;;;;;;;;4997425;28;20027;-52
2022/03/06 02:23:33;;;;;;;86.88;46.53;;;;;;;;;;4996647;28;20065;-55
2022/03/06 02:25:59;;;;;;;84.38;44.45;;;;;;;;;;4996529;28;20022;-53
2022/03/06 02:28:25;;;;;;;77.90;42.88;;;;;;;;;;4997314;28;20030;-54
2022/03/06 02:30:51;;;;;;;73.40;40.97;;;;;;;;;;4997272;28;20026;-54
2022/03/06 02:33:18;;;;;;;77.55;41.83;;;;;;;;;;4996918;28;20374;-56
2022/03/06 02:35:44;;;;;;;81.38;42.72;;;;;;;;;;4997406;28;20513;-51
2022/03/06 02:38:10;;;;;;;77.90;40.78;;;;;;;;;;4997374;28;20036;-54
2022/03/06 02:40:40;;;;;;;72.75;37.95;;;;;;;;;;4996430;28;20030;-51
2022/03/06 02:43:07;;;;;;;74.05;38.25;;;;;;;;;;4996805;28;20042;-53
2022/03/06 02:45:33;;;;;;;78.22;41.53;;;;;;;;;;4997120;28;20360;-53
2022/03/06 02:47:59;;;;;;;71.30;38.08;;;;;;;;;;4996732;28;20450;-54
2022/03/06 02:50:30;;;;;;;66.32;36.78;;;;;;;;;;4997218;28;20032;-55
2022/03/06 02:52:57;;;;;;;51.55;30.42;;;;;;;;;;4997147;28;20042;-54
2022/03/06 02:55:23;;;;;;;64.85;36.88;;;;;;;;;;4996645;28;20058;-55
2022/03/06 02:57:50;;;;;;;71.30;38.05;;;;;;;;;;4996811;28;20026;-53
2022/03/06 03:00:18;;;;;;;84.30;43.65;;;;;;;;;;4997319;28;20031;-55
2022/03/06 03:02:44;;;;;;;73.38;38.58;;;;;;;;;;4995945;28;20561;-54
2022/03/06 03:05:11;;;;;;;78.93;40.33;;;;;;;;;;4996938;28;20058;-50
2022/03/06 03:07:41;;;;;;;71.65;40.08;;;;;;;;;;4996558;28;20026;-48
2022/03/06 03:10:08;;;;;;;71.90;37.90;;;;;;;;;;4996850;28;20030;-51
2022/03/06 03:12:34;;;;;;;69.63;37.97;;;;;;;;;;4996771;28;20039;-48
2022/03/06 03:15:00;;;;;;;72.25;40.53;;;;;;;;;;4996687;28;20459;-52
2022/03/06 03:17:27;;;;;;;80.25;39.60;;;;;;;;;;4996737;28;20404;-57
2022/03/06 03:19:53;;;;;;;419.35;121.38;;;;;;;;;;4996638;28;20023;-54
2022/03/06 03:22:19;;;;;;;258.27;89.43;;;;;;;;;;4994348;28;20368;-54
2022/03/06 03:24:45;;;;;;;302.05;104.75;;;;;;;;;;4996379;28;20088;-54
2022/03/06 03:27:11;;;;;;;745.13;266.25;;;;;;;;;;4996615;28;20054;-50
2022/03/06 03:29:38;;;;;;;141.85;64.00;;;;;;;;;;4996243;28;20037;-55
2022/03/06 03:32:04;;;;;;;248.20;88.32;;;;;;;;;;4996216;28;20041;-53
2022/03/06 03:34:30;;;;;;;114.30;52.40;;;;;;;;;;4996240;28;20407;-53
2022/03/06 03:36:57;;;;;;;91.20;45.65;;;;;;;;;;4995882;28;20023;-55
2022/03/06 03:39:23;;;;;;;137.35;57.10;;;;;;;;;;4996093;28;20481;-53
2022/03/06 03:41:49;;;;;;;118.70;52.10;;;;;;;;;;4996080;28;20058;-57
2022/03/06 03:44:16;;;;;;;333.40;126.18;;;;;;;;;;4995831;28;20113;-56
2022/03/06 03:46:42;;;;;;;100.57;51.33;;;;;;;;;;4996267;28;20501;-55
2022/03/06 03:49:08;;;;;;;69.70;38.20;;;;;;;;;;4996300;28;20054;-52
2022/03/06 03:51:34;;;;;;;62.90;35.50;;;;;;;;;;4995590;28;20445;-55
2022/03/06 03:54:00;;;;;;;68.97;38.47;;;;;;;;;;4995903;28;20034;-51
2022/03/06 03:56:26;;;;;;;61.58;35.35;;;;;;;;;;4996258;28;20030;-51
2022/03/06 03:58:52;;;;;;;91.18;46.28;;;;;;;;;;4995760;28;20029;-54
2022/03/06 04:01:19;;;;;;;86.85;44.17;;;;;;;;;;4995893;28;20029;-55
2022/03/06 04:03:45;;;;;;;59.92;35.35;;;;;;;;;;4995334;28;20084;-51
2022/03/06 04:06:11;;;;;;;63.72;36.10;;;;;;;;;;4995460;28;20030;-47
2022/03/06 04:08:38;;;;;;;69.18;37.17;;;;;;;;;;4995520;28;20015;-54
2022/03/06 04:11:04;;;;;;;75.90;40.78;;;;;;;;;;4995388;28;20058;-50
2022/03/06 04:13:30;;;;;;;65.57;35.42;;;;;;;;;;4995537;28;20113;-51
2022/03/06 04:15:57;;;;;;;66.55;35.25;;;;;;;;;;4995596;28;20027;-48
2022/03/06 04:18:23;;;;;;;63.13;33.92;;;;;;;;;;4995060;28;20081;-52
2022/03/06 04:20:49;;;;;;;67.95;37.25;;;;;;;;;;4994949;28;20471;-53
2022/03/06 04:23:15;;;;;;;70.68;38.17;;;;;;;;;;4995345;28;20030;-47
2022/03/06 04:25:41;;;;;;;72.68;38.08;;;;;;;;;;4995032;28;20032;-52
2022/03/06 04:28:08;;;;;;;68.00;37.42;;;;;;;;;;4995329;28;20057;-53
2022/03/06 04:30:34;;;;;;;65.22;37.40;;;;;;;;;;4995050;28;20030;-51
2022/03/06 04:33:00;;;;;;;63.47;35.78;;;;;;;;;;4994155;28;20045;-54
2022/03/06 04:35:27;;;;;;;55.92;32.85;;;;;;;;;;4994631;28;20029;-52
2022/03/06 04:37:53;;;;;;;62.38;35.17;;;;;;;;;;4995289;28;20394;-52
2022/03/06 04:40:19;;;;;;;63.20;34.30;;;;;;;;;;4994949;28;20518;-57
2022/03/06 04:42:45;;;;;;;60.03;31.15;;;;;;;;;;4994649;28;20093;-55
2022/03/06 04:45:12;;;;;;;56.15;30.30;;;;;;;;;;4995143;28;20026;-52
2022/03/06 04:47:38;;;;;;;69.53;34.70;;;;;;;;;;4994791;28;20105;-56
2022/03/06 04:50:05;;;;;;;69.13;35.70;;;;;;;;;;4995039;28;20076;-53
2022/03/06 04:52:31;;;;;;;70.60;33.33;;;;;;;;;;4994648;28;20072;-49
2022/03/06 04:54:57;;;;;;;61.65;30.30;;;;;;;;;;4994940;28;20040;-51
2022/03/06 04:57:23;;;;;;;47.65;25.23;;;;;;;;;;4994782;28;20073;-53
2022/03/06 04:59:49;;;;;;;59.42;30.60;;;;;;;;;;4994132;28;20502;-54
2022/03/06 05:02:16;;;;;;;52.20;28.08;;;;;;;;;;4994488;28;20034;-48
2022/03/06 05:04:42;;;;;;;46.28;26.00;;;;;;;;;;4994521;28;20537;-54
2022/03/06 05:07:08;;;;;;;64.32;31.40;;;;;;;;;;4993092;28;20372;-51
2022/03/06 05:09:34;;;;;;;43.83;23.73;;;;;;;;;;4994486;28;20359;-53
2022/03/06 05:12:00;;;;;;;39.38;23.02;;;;;;;;;;4994347;28;20482;-50
2022/03/06 05:14:26;;;;;;;44.97;24.30;;;;;;;;;;4994337;28;20026;-54
2022/03/06 05:16:52;;;;;;;45.88;22.98;;;;;;;;;;4994105;28;20053;-55
2022/03/06 05:19:19;;;;;;;65.60;33.10;;;;;;;;;;4994211;28;20015;-51
2022/03/06 05:21:45;;;;;;;83.95;44.33;;;;;;;;;;4993975;28;20026;-55
2022/03/06 05:24:11;;;;;;;96.88;58.28;;;;;;;;;;4992729;28;20030;-54
2022/03/06 05:26:38;;;;;;;150.85;87.28;;;;;;;;;;4993777;28;20027;-51
2022/03/06 05:29:04;;;;;;;272.92;146.77;;;;;;;;;;4994204;28;20105;-48
2022/03/06 05:31:30;;;;;;;117.03;65.05;;;;;;;;;;4994456;28;20026;-52
2022/03/06 05:33:56;;;;;;;127.88;71.60;;;;;;;;;;4994423;28;20058;-55
2022/03/06 05:36:23;;;;;;;143.23;85.20;;;;;;;;;;4994221;28;20375;-52
2022/03/06 05:38:49;;;;;;;89.05;56.20;;;;;;;;;;4994096;28;20474;-52
2022/03/06 05:41:15;;;;;;;54.63;33.17;;;;;;;;;;4994119;28;20034;-58
2022/03/06 05:43:41;;;;;;;75.30;43.35;;;;;;;;;;4994004;28;20038;-54
2022/03/06 05:46:07;;;;;;;44.75;26.55;;;;;;;;;;4993701;28;20541;-54
2022/03/06 05:48:33;;;;;;;49.33;29.77;;;;;;;;;;4993981;28;20031;-54
2022/03/06 05:51:00;;;;;;;47.65;28.33;;;;;;;;;;4978680;28;20442;-53
2022/03/06 05:53:26;;;;;;;51.08;29.95;;;;;;;;;;4974664;28;20030;-52
2022/03/06 05:55:52;;;;;;;46.63;28.30;;;;;;;;;;4974516;28;20038;-47
2022/03/06 05:58:18;;;;;;;49.80;30.83;;;;;;;;;;4980512;28;20476;-51
2022/03/06 06:00:44;;;;;;;77.47;39.97;;;;;;;;;;4984294;28;20022;-55
2022/03/06 06:03:10;;;;;;;62.05;36.88;;;;;;;;;;4983543;28;20464;-50
2022/03/06 06:05:38;;;;;;;49.03;30.15;;;;;;;;;;4993922;28;20076;-55
2022/03/06 06:08:05;;;;;;;51.35;29.85;;;;;;;;;;4993792;28;20426;-53
2022/03/06 06:10:31;;;;;;;44.38;26.25;;;;;;;;;;4993100;28;20019;-57
2022/03/06 06:12:57;;;;;;;62.53;36.08;;;;;;;;;;4992193;28;20049;-54
2022/03/06 06:15:23;;;;;;;43.47;26.30;;;;;;;;;;4993768;28;20019;-52
2022/03/06 06:17:50;;;;;;;38.40;24.70;;;;;;;;;;4993310;28;20422;-54
2022/03/06 06:20:16;;;;;;;37.90;22.38;;;;;;;;;;4993642;28;20113;-55
2022/03/06 06:22:42;;;;;;;44.75;25.10;;;;;;;;;;4993444;28;20038;-49
2022/03/06 06:25:09;;;;;;;42.20;24.38;;;;;;;;;;4993348;28;20061;-55
2022/03/06 06:27:35;;;;;;;41.03;24.17;;;;;;;;;;4993580;28;20026;-54
2022/03/06 06:30:01;;;;;;;49.50;26.58;;;;;;;;;;4993808;28;20037;-51
2022/03/06 06:32:27;;;;;;;43.63;26.60;;;;;;;;;;4993129;28;20475;-54
2022/03/06 06:34:53;;;;;;;39.28;23.67;;;;;;;;;;4993684;28;20026;-55
2022/03/06 06:37:20;;;;;;;43.30;27.85;;;;;;;;;;4993717;28;20033;-53
2022/03/06 06:39:46;;;;;;;37.78;24.75;;;;;;;;;;4993385;28;20030;-55
2022/03/06 06:42:12;;;;;;;45.92;29.25;;;;;;;;;;4985920;28;20044;-51
2022/03/06 06:44:38;;;;;;;34.70;23.00;;;;;;;;;;4992426;28;20027;-55
2022/03/06 06:47:04;;;;;;;30.23;19.75;;;;;;;;;;4993539;28;20049;-55
2022/03/06 06:49:30;;;;;;;35.63;22.65;;;;;;;;;;4993071;28;20022;-53
2022/03/06 06:51:57;;;;;;;34.60;20.92;;;;;;;;;;4992527;28;20023;-54
2022/03/06 06:54:23;;;;;;;40.92;25.20;;;;;;;;;;4992695;28;20023;-56
2022/03/06 06:56:49;;;;;;;37.88;24.60;;;;;;;;;;4992991;28;20156;-55
2022/03/06 06:59:16;;;;;;;37.97;24.20;;;;;;;;;;4996397;28;20491;-55
2022/03/06 07:01:42;;;;;;;42.13;25.13;;;;;;;;;;4996484;28;20034;-52
2022/03/06 07:04:08;;;;;;;55.05;33.92;;;;;;;;;;4996577;28;20089;-50
2022/03/06 07:06:34;;;;;;;51.35;30.08;;;;;;;;;;4996316;28;20026;-50
2022/03/06 07:09:01;;;;;;;50.15;29.42;;;;;;;;;;4995514;28;20026;-56
2022/03/06 07:11:27;;;;;;;44.65;27.95;;;;;;;;;;4996634;28;20505;-52
2022/03/06 07:13:53;;;;;;;30.55;19.15;;;;;;;;;;4996227;28;20034;-55
2022/03/06 07:16:19;;;;;;;66.35;39.72;;;;;;;;;;4996941;28;20030;-57
2022/03/06 07:18:46;;;;;;;45.65;25.17;;;;;;;;;;4994709;28;20030;-55
2022/03/06 07:21:12;;;;;;;69.40;39.50;;;;;;;;;;4994609;28;20372;-57
2022/03/06 07:23:38;;;;;;;64.03;33.85;;;;;;;;;;4994910;28;20483;-58
2022/03/06 07:26:04;;;;;;;86.60;47.70;;;;;;;;;;4995809;28;20030;-56
2022/03/06 07:28:30;;;;;;;61.70;36.00;;;;;;;;;;4995066;28;20022;-56
2022/03/06 07:30:56;;;;;;;57.83;32.60;;;;;;;;;;4994374;28;20029;-56
2022/03/06 07:33:23;;;;;;;47.10;27.00;;;;;;;;;;4996354;28;20042;-56
2022/03/06 07:35:49;;;;;;;69.22;41.42;;;;;;;;;;4996158;28;20038;-53
2022/03/06 07:38:15;;;;;;;69.78;38.55;;;;;;;;;;4996104;28;20499;-55
2022/03/06 07:40:41;;;;;;;54.25;30.45;;;;;;;;;;4995619;28;20493;-55
2022/03/06 07:43:07;;;;;;;54.60;28.83;;;;;;;;;;4996326;28;20051;-55
2022/03/06 07:45:33;;;;;;;58.17;33.45;;;;;;;;;;4996276;28;20362;-52
2022/03/06 07:48:00;;;;;;;63.45;37.22;;;;;;;;;;4995920;28;20044;-53
2022/03/06 07:50:26;;;;;;;49.03;28.25;;;;;;;;;;4996231;28;20130;-56
2022/03/06 07:52:53;;;;;;;42.33;25.92;;;;;;;;;;4996088;28;20026;-52
2022/03/06 07:55:19;;;;;;;46.25;27.17;;;;;;;;;;4995800;28;20030;-56
2022/03/06 07:57:46;;;;;;;45.15;24.85;;;;;;;;;;4995693;28;20026;-57
2022/03/06 08:00:12;;;;;;;74.00;40.67;;;;;;;;;;4996110;28;20034;-55
2022/03/06 08:02:39;;;;;;;105.70;57.10;;;;;;;;;;4995199;28;20382;-54
2022/03/06 08:05:05;;;;;;;71.25;39.40;;;;;;;;;;4996113;28;20433;-55
2022/03/06 08:07:32;;;;;;;86.05;46.45;;;;;;;;;;4995589;28;20387;-50
2022/03/06 08:09:58;;;;;;;36.83;22.83;;;;;;;;;;4995613;28;20114;-52
2022/03/06 08:12:25;;;;;;;52.85;29.80;;;;;;;;;;4995427;28;20026;-51
2022/03/06 08:14:51;;;;;;;49.35;28.77;;;;;;;;;;4995395;28;20105;-53
2022/03/06 08:17:18;;;;;;;42.15;25.10;;;;;;;;;;4995092;28;20427;-52
2022/03/06 08:19:44;;;;;;;51.03;30.13;;;;;;;;;;4995590;28;20026;-55
2022/03/06 08:22:10;;;;;;;53.47;28.13;;;;;;;;;;4995455;28;20042;-55
2022/03/06 08:24:37;;;;;;;45.72;27.95;;;;;;;;;;4995098;28;20046;-56
2022/03/06 08:27:03;;;;;;;44.05;25.70;;;;;;;;;;4995884;28;20344;-52
2022/03/06 08:29:29;;;;;;;32.55;20.42;;;;;;;;;;4995572;28;20355;-52
2022/03/06 08:31:55;;;;;;;39.67;25.55;;;;;;;;;;4995256;28;20089;-54
2022/03/06 08:34:21;;;;;;;31.00;18.50;;;;;;;;;;4995220;28;20023;-55
2022/03/06 08:36:47;;;;;;;26.08;16.60;;;;;;;;;;4994880;28;20050;-54
2022/03/06 08:39:14;;;;;;;31.00;19.00;;;;;;;;;;4995450;28;20019;-53
2022/03/06 08:41:40;;;;;;;31.50;19.23;;;;;;;;;;4994837;28;20054;-54
2022/03/06 08:44:06;;;;;;;34.50;21.75;;;;;;;;;;4994777;28;20117;-50
2022/03/06 08:46:32;;;;;;;41.10;24.65;;;;;;;;;;4995061;28;20054;-53
2022/03/06 08:48:58;;;;;;;42.97;24.98;;;;;;;;;;4994961;28;20023;-55
2022/03/06 08:51:24;;;;;;;30.67;18.50;;;;;;;;;;4994643;28;20018;-53
2022/03/06 08:53:51;;;;;;;42.33;26.92;;;;;;;;;;4994790;28;20034;-53
2022/03/06 08:56:17;;;;;;;38.28;22.33;;;;;;;;;;4994885;28;20058;-49
2022/03/06 08:58:43;;;;;;;38.53;23.15;;;;;;;;;;4994280;28;20030;-49
2022/03/06 09:01:09;;;;;;;28.83;18.52;;;;;;;;;;4994864;28;20022;-51
2022/03/06 09:03:35;;;;;;;68.43;36.58;;;;;;;;;;4994314;28;20080;-52
2022/03/06 09:06:02;;;;;;;72.43;35.35;;;;;;;;;;4994353;28;20030;-52
2022/03/06 09:08:28;;;;;;;47.30;25.40;;;;;;;;;;4994231;28;20029;-52
2022/03/06 09:10:54;;;;;;;48.78;25.88;;;;;;;;;;4994427;28;20525;-50
2022/03/06 09:13:20;;;;;;;53.78;32.20;;;;;;;;;;4994057;28;20472;-51
2022/03/06 09:15:46;;;;;;;42.78;25.20;;;;;;;;;;4994493;28;20031;-52
2022/03/06 09:18:13;;;;;;;36.45;23.55;;;;;;;;;;4994241;28;20425;-53
2022/03/06 09:20:39;;;;;;;21.45;13.70;;;;;;;;;;4993779;28;20363;-50
2022/03/06 09:23:07;;;;;;;26.50;16.95;;;;;;;;;;4994296;28;20097;-53
2022/03/06 09:25:33;;;;;;;34.80;22.52;;;;;;;;;;4993690;28;20027;-50
2022/03/06 09:28:00;;;;;;;29.73;18.67;;;;;;;;;;4994287;28;20105;-52
2022/03/06 09:30:27;;;;;;;24.35;15.65;;;;;;;;;;4994172;28;20019;-51
2022/03/06 09:32:53;;;;;;;26.23;16.65;;;;;;;;;;4993782;28;20420;-46
2022/03/06 09:35:19;;;;;;;24.75;16.27;;;;;;;;;;4992913;28;20426;-51
2022/03/06 09:37:45;;;;;;;51.85;29.88;;;;;;;;;;4993073;28;20027;-50
2022/03/06 09:40:12;;;;;;;21.67;16.00;;;;;;;;;;4993083;28;20033;-53
2022/03/06 09:42:38;;;;;;;23.05;15.05;;;;;;;;;;4993351;28;20089;-51
2022/03/06 09:45:05;;;;;;;24.65;15.18;;;;;;;;;;4993941;28;20105;-52
2022/03/06 09:47:32;;;;;;;20.70;13.68;;;;;;;;;;4994140;28;20022;-51
2022/03/06 09:49:58;;;;;;;31.35;18.50;;;;;;;;;;4994088;28;20018;-50
2022/03/06 09:52:24;;;;;;;39.63;23.85;;;;;;;;;;4994114;28;20030;-50
2022/03/06 09:54:50;;;;;;;44.15;24.92;;;;;;;;;;4994100;28;20022;-47
2022/03/06 09:57:19;;;;;;;39.35;23.55;;;;;;;;;;4994008;28;20092;-45
2022/03/06 09:59:46;;;;;;;41.72;23.77;;;;;;;;;;4994840;28;20344;-45
2022/03/06 10:02:12;;;;;;;34.50;20.45;;;;;;;;;;4993747;28;20027;-51
2022/03/06 10:04:39;;;;;;;27.85;18.83;;;;;;;;;;4987800;28;20379;-48
2022/03/06 10:07:16;;;;;;;33.13;20.60;;;;;;;;;;4976102;28;20192;-45
2022/03/06 10:09:43;;;;;;;39.55;22.67;;;;;;;;;;4982651;28;20031;-47
2022/03/06 10:12:19;;;;;;;39.60;23.90;;;;;;;;;;4993898;28;20026;-50
2022/03/06 10:14:46;;;;;;;21.75;14.35;;;;;;;;;;4993213;28;20045;-46
2022/03/06 10:17:17;;;;;;;31.50;19.50;;;;;;;;;;4993531;28;20422;-49
2022/03/06 10:20:06;;;;;;;28.40;17.85;;;;;;;;;;4993349;28;20101;-49
2022/03/06 10:22:33;;;;;;;33.97;21.42;;;;;;;;;;4985412;28;20041;-49
2022/03/06 10:25:07;;;;;;;32.15;20.58;;;;;;;;;;4993967;28;20045;-54
2022/03/06 10:27:51;;;;;;;42.35;26.23;;;;;;;;;;4992836;28;20066;-52
2022/03/06 10:30:23;;;;;;;44.72;27.90;;;;;;;;;;4992945;28;20031;-52
2022/03/06 10:32:51;;;;;;;31.23;18.52;;;;;;;;;;4986033;28;20087;-51
2022/03/06 10:35:28;;;;;;;29.27;17.88;;;;;;;;;;4977739;28;20027;-51
2022/03/06 10:37:57;;;;;;;29.83;17.80;;;;;;;;;;4977449;28;20023;-50
2022/03/06 10:40:33;;;;;;;31.23;21.15;;;;;;;;;;4977327;28;20029;-47
2022/03/06 10:42:59;;;;;;;28.33;16.83;;;;;;;;;;4976598;28;20147;-50
2022/03/06 10:45:27;;;;;;;24.65;16.00;;;;;;;;;;4975729;28;20400;-52
2022/03/06 10:47:53;;;;;;;37.22;20.40;;;;;;;;;;4977101;28;20032;-51
2022/03/06 10:50:23;;;;;;;29.33;16.95;;;;;;;;;;4977428;28;20027;-46
2022/03/06 10:52:53;;;;;;;23.20;14.85;;;;;;;;;;4977646;28;20035;-50
2022/03/06 10:55:31;;;;;;;28.17;17.03;;;;;;;;;;4977535;28;20027;-51
2022/03/06 10:57:57;;;;;;;35.30;19.83;;;;;;;;;;4978781;28;20015;-53
2022/03/06 11:00:24;;;;;;;29.83;17.95;;;;;;;;;;4980912;28;20025;-48
2022/03/06 11:02:51;;;;;;;96.22;53.63;;;;;;;;;;4977182;28;20038;-51
2022/03/06 11:05:18;;;;;;;44.67;28.45;;;;;;;;;;4977304;28;20033;-51
2022/03/06 11:07:44;;;;;;;75.07;44.58;;;;;;;;;;4977250;28;20022;-54
2022/03/06 11:10:12;;;;;;;52.03;31.20;;;;;;;;;;4977191;28;20023;-52
2022/03/06 11:12:39;;;;;;;32.00;19.20;;;;;;;;;;4977121;28;20030;-51
2022/03/06 11:15:05;;;;;;;64.80;36.33;;;;;;;;;;4977212;28;20037;-53
2022/03/06 11:17:32;;;;;;;35.55;21.65;;;;;;;;;;4976680;28;20027;-50
2022/03/06 11:19:59;;;;;;;24.45;16.52;;;;;;;;;;4977150;28;20357;-50
2022/03/06 11:22:33;;;;;;;26.92;16.13;;;;;;;;;;4976743;28;20431;-49
2022/03/06 11:25:03;;;;;;;27.48;17.65;;;;;;;;;;4976600;28;20479;-54
2022/03/06 11:27:48;;;;;;;30.50;17.20;;;;;;;;;;4976570;28;20085;-46
2022/03/06 11:30:20;;;;;;;55.72;30.00;;;;;;;;;;4977034;28;20498;-52
2022/03/06 11:32:47;;;;;;;47.10;28.23;;;;;;;;;;4976634;28;20034;-54
2022/03/06 11:35:19;;;;;;;49.67;30.45;;;;;;;;;;4977647;28;20026;-51
2022/03/06 11:37:53;;;;;;;35.47;21.42;;;;;;;;;;4976708;28;20113;-52
2022/03/06 11:40:45;;;;;;;116.35;60.78;;;;;;;;;;4976306;28;20077;-52
2022/03/06 11:43:32;;;;;;;25.50;16.80;;;;;;;;;;4983650;28;20586;-58
2022/03/06 11:45:58;;;;;;;33.17;22.52;;;;;;;;;;4976860;28;20027;-59
2022/03/06 11:48:25;;;;;;;25.50;16.45;;;;;;;;;;4976475;28;20033;-63
2022/03/06 11:51:10;;;;;;;29.73;19.52;;;;;;;;;;5009173;28;20033;-62
2022/03/06 11:53:54;;;;;;;31.25;20.60;;;;;;;;;;5010477;28;20097;-60
2022/03/06 11:56:36;;;;;;;25.95;17.13;;;;;;;;;;5015100;28;20030;-62
2022/03/06 11:59:02;;;;;;;38.92;24.98;;;;;;;;;;5007703;28;20157;-61
2022/03/06 12:01:29;;;;;;;32.05;20.92;;;;;;;;;;4994448;28;20537;-58
2022/03/06 12:03:56;;;;;;;33.75;22.85;;;;;;;;;;5013012;28;20493;-56
2022/03/06 12:06:23;;;;;;;28.13;19.02;;;;;;;;;;4998296;28;20057;-61
2022/03/06 12:08:52;;;;;;;23.92;15.52;;;;;;;;;;4995521;28;20022;-62
2022/03/06 12:11:19;;;;;;;29.70;20.38;;;;;;;;;;4996194;28;20125;-61
2022/03/06 12:13:49;;;;;;;32.50;21.63;;;;;;;;;;4984024;28;20035;-63
2022/03/06 12:16:16;;;;;;;35.28;23.52;;;;;;;;;;4985027;28;20022;-61
2022/03/06 12:19:01;;;;;;;37.88;23.80;;;;;;;;;;4998229;28;20030;-61
2022/03/06 12:21:36;;;;;;;26.05;16.20;;;;;;;;;;4995025;28;20022;-62
2022/03/06 12:24:12;;;;;;;28.13;17.33;;;;;;;;;;4994904;28;20085;-60
2022/03/06 12:26:42;;;;;;;23.15;15.65;;;;;;;;;;4999356;28;20038;-60
2022/03/06 12:29:08;;;;;;;35.92;21.13;;;;;;;;;;5011323;28;20455;-61
2022/03/06 12:31:36;;;;;;;31.35;19.55;;;;;;;;;;4994927;28;20495;-63
2022/03/06 12:34:23;;;;;;;29.25;18.77;;;;;;;;;;4995121;28;20113;-61
2022/03/06 12:36:53;;;;;;;53.33;31.63;;;;;;;;;;4995045;28;20073;-58
2022/03/06 12:39:20;;;;;;;42.63;23.00;;;;;;;;;;4995153;28;20022;-61
2022/03/06 12:41:46;;;;;;;37.95;20.45;;;;;;;;;;5005363;28;20049;-62
2022/03/06 12:44:13;;;;;;;38.88;20.15;;;;;;;;;;4994680;28;20031;-60
2022/03/06 12:46:39;;;;;;;46.42;27.13;;;;;;;;;;4994656;28;20023;-61
2022/03/06 12:49:06;;;;;;;44.83;26.52;;;;;;;;;;4994461;28;20023;-61
2022/03/06 12:51:37;;;;;;;19.75;11.80;;;;;;;;;;4995103;28;20026;-56
2022/03/06 12:54:04;;;;;;;20.48;13.18;;;;;;;;;;4994000;28;20073;-63
2022/03/06 12:56:38;;;;;;;25.92;16.15;;;;;;;;;;4993759;28;20027;-48
2022/03/06 12:59:23;;;;;;;30.30;17.23;;;;;;;;;;4994791;28;20030;-52
2022/03/06 13:01:49;;;;;;;23.45;13.80;;;;;;;;;;4994713;28;20025;-52
2022/03/06 13:04:16;;;;;;;46.50;25.10;;;;;;;;;;4994051;28;20534;-54
2022/03/06 13:06:43;;;;;;;48.53;27.98;;;;;;;;;;4994669;28;20040;-56
2022/03/06 13:09:09;;;;;;;24.48;16.02;;;;;;;;;;4994546;28;20046;-52
2022/03/06 13:11:37;;;;;;;45.03;28.30;;;;;;;;;;4993998;28;20296;-56
2022/03/06 13:14:05;;;;;;;45.33;31.67;;;;;;;;;;4994418;28;20033;-59
2022/03/06 13:16:31;;;;;;;34.28;22.00;;;;;;;;;;4993411;28;20423;-55
2022/03/06 13:19:01;;;;;;;29.45;19.08;;;;;;;;;;4994455;28;20026;-57
2022/03/06 13:21:27;;;;;;;26.58;19.20;;;;;;;;;;5010995;28;20463;-54
2022/03/06 13:23:55;;;;;;;31.02;19.60;;;;;;;;;;4999126;28;20108;-58
2022/03/06 13:26:21;;;;;;;35.00;20.38;;;;;;;;;;4994218;28;20058;-52
2022/03/06 13:28:47;;;;;;;37.35;23.90;;;;;;;;;;4994577;28;20636;-55
2022/03/06 13:31:13;;;;;;;49.63;27.17;;;;;;;;;;4993876;28;20033;-54
2022/03/06 13:33:40;;;;;;;71.53;41.83;;;;;;;;;;4994077;28;20603;-58
2022/03/06 13:36:16;;;;;;;97.90;51.50;;;;;;;;;;4993965;28;20030;-56
2022/03/06 13:38:43;;;;;;;76.75;43.05;;;;;;;;;;5007254;28;20029;-49
2022/03/06 13:41:12;;;;;;;33.67;21.13;;;;;;;;;;5012883;28;20406;-56
2022/03/06 13:43:43;;;;;;;66.78;37.63;;;;;;;;;;5013612;28;20030;-54
2022/03/06 13:46:23;;;;;;;57.47;33.53;;;;;;;;;;5013259;28;20029;-56
2022/03/06 13:49:16;;;;;;;50.17;28.23;;;;;;;;;;5013093;28;20044;-62
2022/03/06 13:51:43;;;;;;;44.45;24.85;;;;;;;;;;5011394;28;20014;-57
2022/03/06 13:54:09;;;;;;;42.53;26.20;;;;;;;;;;5012295;28;20108;-62
2022/03/06 13:56:40;;;;;;;41.92;26.15;;;;;;;;;;5006082;28;20073;-62
2022/03/06 13:59:08;;;;;;;46.25;27.52;;;;;;;;;;4993688;28;20105;-57
2022/03/06 14:01:35;;;;;;;45.50;27.73;;;;;;;;;;4994076;28;20416;-57
2022/03/06 14:04:03;;;;;;;43.92;25.67;;;;;;;;;;4993164;28;20471;-56
2022/03/06 14:06:33;;;;;;;51.03;30.95;;;;;;;;;;5000080;28;20082;-56
2022/03/06 14:08:59;;;;;;;53.75;31.45;;;;;;;;;;5007369;28;20374;-52
2022/03/06 14:11:27;;;;;;;47.10;28.02;;;;;;;;;;4993757;28;20050;-58
2022/03/06 14:13:54;;;;;;;41.10;26.23;;;;;;;;;;5005576;28;20030;-57
2022/03/06 14:16:20;;;;;;;46.50;27.42;;;;;;;;;;5002908;28;20031;-60
2022/03/06 14:18:47;;;;;;;46.40;28.85;;;;;;;;;;5013840;28;20371;-53